sensor_id;sensor_type;location;lat;lon;timestamp;temperature;humidity
27797;DHT22;15177;50.844;4.412;2023-06-14T00:02:06;22.90;59.40
27797;DHT22;15177;50.844;4.412;2023-06-14T00:04:34;23.00;59.20
27797;DHT22;15177;50.844;4.412;2023-06-14T00:07:00;23.00;59.40
27797;DHT22;15177;50.844;4.412;2023-06-14T00:09:26;22.90;59.40
27797;DHT22;15177;50.844;4.412;2023-06-14T00:11:52;22.90;59.70
27797;DHT22;15177;50.844;4.412;2023-06-14T00:14:18;22.90;59.70
27797;DHT22;15177;50.844;4.412;2023-06-14T00:16:45;22.70;60.10
27797;DHT22;15177;50.844;4.412;2023-06-14T00:19:11;22.70;60.20
27797;DHT22;15177;50.844;4.412;2023-06-14T00:21:37;22.80;60.10
27797;DHT22;15177;50.844;4.412;2023-06-14T00:24:03;22.90;59.70
27797;DHT22;15177;50.844;4.412;2023-06-14T00:26:29;22.70;60.20
27797;DHT22;15177;50.844;4.412;2023-06-14T00:28:55;22.70;60.50
27797;DHT22;15177;50.844;4.412;2023-06-14T00:31:22;22.70;60.50
27797;DHT22;15177;50.844;4.412;2023-06-14T00:33:48;22.60;60.40
27797;DHT22;15177;50.844;4.412;2023-06-14T00:36:15;22.50;60.90
27797;DHT22;15177;50.844;4.412;2023-06-14T00:38:43;22.50;61.00
27797;DHT22;15177;50.844;4.412;2023-06-14T00:41:09;22.50;61.30
27797;DHT22;15177;50.844;4.412;2023-06-14T00:43:35;22.50;61.20
27797;DHT22;15177;50.844;4.412;2023-06-14T00:46:01;22.40;61.50
27797;DHT22;15177;50.844;4.412;2023-06-14T00:48:27;22.50;61.20
27797;DHT22;15177;50.844;4.412;2023-06-14T00:50:54;22.50;61.10
27797;DHT22;15177;50.844;4.412;2023-06-14T00:53:20;22.40;61.30
27797;DHT22;15177;50.844;4.412;2023-06-14T00:55:48;22.50;61.30
27797;DHT22;15177;50.844;4.412;2023-06-14T00:58:14;22.50;61.40
27797;DHT22;15177;50.844;4.412;2023-06-14T01:00:40;22.50;61.30
27797;DHT22;15177;50.844;4.412;2023-06-14T01:03:06;22.50;61.50
27797;DHT22;15177;50.844;4.412;2023-06-14T01:05:32;22.50;61.50
27797;DHT22;15177;50.844;4.412;2023-06-14T01:11:05;22.40;61.80
27797;DHT22;15177;50.844;4.412;2023-06-14T01:13:35;22.30;62.10
27797;DHT22;15177;50.844;4.412;2023-06-14T01:16:02;22.30;62.30
27797;DHT22;15177;50.844;4.412;2023-06-14T01:18:29;22.20;62.50
27797;DHT22;15177;50.844;4.412;2023-06-14T01:20:55;22.20;62.60
27797;DHT22;15177;50.844;4.412;2023-06-14T01:23:22;22.20;62.70
27797;DHT22;15177;50.844;4.412;2023-06-14T01:25:50;22.30;62.60
27797;DHT22;15177;50.844;4.412;2023-06-14T01:28:20;22.20;62.70
27797;DHT22;15177;50.844;4.412;2023-06-14T01:30:50;22.20;62.80
27797;DHT22;15177;50.844;4.412;2023-06-14T01:33:22;22.10;63.10
27797;DHT22;15177;50.844;4.412;2023-06-14T01:35:51;22.00;63.40
27797;DHT22;15177;50.844;4.412;2023-06-14T01:38:23;21.80;63.70
27797;DHT22;15177;50.844;4.412;2023-06-14T01:40:50;21.60;64.80
27797;DHT22;15177;50.844;4.412;2023-06-14T01:43:18;21.80;64.60
27797;DHT22;15177;50.844;4.412;2023-06-14T01:45:46;21.90;64.30
27797;DHT22;15177;50.844;4.412;2023-06-14T01:48:13;21.90;64.30
27797;DHT22;15177;50.844;4.412;2023-06-14T01:50:39;21.70;64.80
27797;DHT22;15177;50.844;4.412;2023-06-14T01:53:09;21.60;65.20
27797;DHT22;15177;50.844;4.412;2023-06-14T01:55:35;21.50;65.20
27797;DHT22;15177;50.844;4.412;2023-06-14T01:58:03;21.50;66.00
27797;DHT22;15177;50.844;4.412;2023-06-14T02:00:30;21.50;66.00
27797;DHT22;15177;50.844;4.412;2023-06-14T02:02:55;21.50;65.80
27797;DHT22;15177;50.844;4.412;2023-06-14T02:05:21;21.50;66.00
27797;DHT22;15177;50.844;4.412;2023-06-14T02:07:47;21.50;66.20
27797;DHT22;15177;50.844;4.412;2023-06-14T02:10:13;21.50;66.20
27797;DHT22;15177;50.844;4.412;2023-06-14T02:12:41;21.40;66.40
27797;DHT22;15177;50.844;4.412;2023-06-14T02:15:08;21.40;66.40
27797;DHT22;15177;50.844;4.412;2023-06-14T02:17:35;21.10;67.80
27797;DHT22;15177;50.844;4.412;2023-06-14T02:20:01;21.10;68.00
27797;DHT22;15177;50.844;4.412;2023-06-14T02:22:28;21.00;68.50
27797;DHT22;15177;50.844;4.412;2023-06-14T02:24:54;21.10;68.10
27797;DHT22;15177;50.844;4.412;2023-06-14T02:27:19;21.20;67.70
27797;DHT22;15177;50.844;4.412;2023-06-14T02:29:45;21.00;67.90
27797;DHT22;15177;50.844;4.412;2023-06-14T02:32:11;20.90;68.70
27797;DHT22;15177;50.844;4.412;2023-06-14T02:34:37;20.90;68.60
27797;DHT22;15177;50.844;4.412;2023-06-14T02:37:06;21.00;68.40
27797;DHT22;15177;50.844;4.412;2023-06-14T02:39:32;20.90;68.70
27797;DHT22;15177;50.844;4.412;2023-06-14T02:41:59;20.90;68.80
27797;DHT22;15177;50.844;4.412;2023-06-14T02:44:25;20.90;68.90
27797;DHT22;15177;50.844;4.412;2023-06-14T02:46:52;20.90;69.20
27797;DHT22;15177;50.844;4.412;2023-06-14T02:49:18;20.90;69.10
27797;DHT22;15177;50.844;4.412;2023-06-14T02:51:43;20.80;69.70
27797;DHT22;15177;50.844;4.412;2023-06-14T02:54:09;20.80;69.90
27797;DHT22;15177;50.844;4.412;2023-06-14T02:56:36;20.70;70.30
27797;DHT22;15177;50.844;4.412;2023-06-14T02:59:02;20.70;70.50
27797;DHT22;15177;50.844;4.412;2023-06-14T03:01:28;20.60;70.70
27797;DHT22;15177;50.844;4.412;2023-06-14T03:04:03;20.50;71.00
27797;DHT22;15177;50.844;4.412;2023-06-14T03:06:29;20.30;72.00
27797;DHT22;15177;50.844;4.412;2023-06-14T03:08:59;20.30;72.30
27797;DHT22;15177;50.844;4.412;2023-06-14T03:11:29;20.20;72.40
27797;DHT22;15177;50.844;4.412;2023-06-14T03:13:57;20.30;72.70
27797;DHT22;15177;50.844;4.412;2023-06-14T03:16:23;20.30;72.80
27797;DHT22;15177;50.844;4.412;2023-06-14T03:18:52;20.10;73.20
27797;DHT22;15177;50.844;4.412;2023-06-14T03:21:22;20.10;73.70
27797;DHT22;15177;50.844;4.412;2023-06-14T03:23:49;20.00;74.10
27797;DHT22;15177;50.844;4.412;2023-06-14T03:26:15;20.00;74.60
27797;DHT22;15177;50.844;4.412;2023-06-14T03:28:44;20.10;74.20
27797;DHT22;15177;50.844;4.412;2023-06-14T03:31:11;20.20;73.80
27797;DHT22;15177;50.844;4.412;2023-06-14T03:33:36;20.20;74.20
27797;DHT22;15177;50.844;4.412;2023-06-14T03:36:02;20.10;74.20
27797;DHT22;15177;50.844;4.412;2023-06-14T03:38:28;20.10;74.30
27797;DHT22;15177;50.844;4.412;2023-06-14T03:40:54;20.00;75.40
27797;DHT22;15177;50.844;4.412;2023-06-14T03:43:21;19.70;76.70
27797;DHT22;15177;50.844;4.412;2023-06-14T03:45:48;19.60;77.20
27797;DHT22;15177;50.844;4.412;2023-06-14T03:48:13;19.60;77.50
27797;DHT22;15177;50.844;4.412;2023-06-14T03:50:42;19.50;78.30
27797;DHT22;15177;50.844;4.412;2023-06-14T03:53:08;19.60;78.50
27797;DHT22;15177;50.844;4.412;2023-06-14T03:55:34;19.70;78.40
27797;DHT22;15177;50.844;4.412;2023-06-14T03:58:00;19.60;78.70
27797;DHT22;15177;50.844;4.412;2023-06-14T04:00:26;19.50;79.60
27797;DHT22;15177;50.844;4.412;2023-06-14T04:02:52;19.60;79.70
27797;DHT22;15177;50.844;4.412;2023-06-14T04:05:19;19.50;80.10
27797;DHT22;15177;50.844;4.412;2023-06-14T04:07:45;19.40;81.10
27797;DHT22;15177;50.844;4.412;2023-06-14T04:10:13;19.50;81.10
27797;DHT22;15177;50.844;4.412;2023-06-14T04:12:39;19.40;81.60
27797;DHT22;15177;50.844;4.412;2023-06-14T04:15:06;19.50;81.70
27797;DHT22;15177;50.844;4.412;2023-06-14T04:17:32;19.50;82.00
27797;DHT22;15177;50.844;4.412;2023-06-14T04:20:01;19.50;82.00
27797;DHT22;15177;50.844;4.412;2023-06-14T04:22:27;19.50;82.20
27797;DHT22;15177;50.844;4.412;2023-06-14T04:24:54;19.60;82.30
27797;DHT22;15177;50.844;4.412;2023-06-14T04:27:22;19.60;82.30
27797;DHT22;15177;50.844;4.412;2023-06-14T04:29:51;19.60;82.60
27797;DHT22;15177;50.844;4.412;2023-06-14T04:32:18;19.60;83.10
27797;DHT22;15177;50.844;4.412;2023-06-14T04:34:45;19.70;82.70
27797;DHT22;15177;50.844;4.412;2023-06-14T04:37:10;19.80;82.50
27797;DHT22;15177;50.844;4.412;2023-06-14T04:39:37;19.80;82.30
27797;DHT22;15177;50.844;4.412;2023-06-14T04:42:03;19.70;83.00
27797;DHT22;15177;50.844;4.412;2023-06-14T04:44:30;19.70;82.90
27797;DHT22;15177;50.844;4.412;2023-06-14T04:46:57;19.60;83.90
27797;DHT22;15177;50.844;4.412;2023-06-14T04:49:24;19.60;84.10
27797;DHT22;15177;50.844;4.412;2023-06-14T04:51:50;19.70;83.80
27797;DHT22;15177;50.844;4.412;2023-06-14T04:54:23;19.80;83.80
27797;DHT22;15177;50.844;4.412;2023-06-14T04:56:50;20.00;82.80
27797;DHT22;15177;50.844;4.412;2023-06-14T04:59:16;19.80;83.40
27797;DHT22;15177;50.844;4.412;2023-06-14T05:01:43;19.80;83.60
27797;DHT22;15177;50.844;4.412;2023-06-14T05:04:29;19.90;83.50
27797;DHT22;15177;50.844;4.412;2023-06-14T05:06:54;19.80;83.70
27797;DHT22;15177;50.844;4.412;2023-06-14T05:09:20;19.70;84.50
27797;DHT22;15177;50.844;4.412;2023-06-14T05:11:47;19.80;84.60
27797;DHT22;15177;50.844;4.412;2023-06-14T05:14:13;19.80;84.30
27797;DHT22;15177;50.844;4.412;2023-06-14T05:16:39;20.00;84.10
27797;DHT22;15177;50.844;4.412;2023-06-14T05:19:06;20.20;83.40
27797;DHT22;15177;50.844;4.412;2023-06-14T05:21:32;20.20;83.20
27797;DHT22;15177;50.844;4.412;2023-06-14T05:23:59;20.40;83.10
27797;DHT22;15177;50.844;4.412;2023-06-14T05:26:25;20.50;81.80
27797;DHT22;15177;50.844;4.412;2023-06-14T05:28:54;20.70;81.10
27797;DHT22;15177;50.844;4.412;2023-06-14T05:31:23;21.20;78.70
27797;DHT22;15177;50.844;4.412;2023-06-14T05:33:52;21.60;76.90
27797;DHT22;15177;50.844;4.412;2023-06-14T05:36:17;22.00;74.30
27797;DHT22;15177;50.844;4.412;2023-06-14T05:38:44;22.20;73.20
27797;DHT22;15177;50.844;4.412;2023-06-14T05:41:11;22.40;73.00
27797;DHT22;15177;50.844;4.412;2023-06-14T05:43:37;22.40;71.70
27797;DHT22;15177;50.844;4.412;2023-06-14T05:46:02;23.10;70.00
27797;DHT22;15177;50.844;4.412;2023-06-14T05:48:29;23.30;69.20
27797;DHT22;15177;50.844;4.412;2023-06-14T05:50:55;23.50;67.30
27797;DHT22;15177;50.844;4.412;2023-06-14T05:53:21;23.80;67.10
27797;DHT22;15177;50.844;4.412;2023-06-14T05:55:46;24.50;64.40
27797;DHT22;15177;50.844;4.412;2023-06-14T05:58:12;24.60;62.90
27797;DHT22;15177;50.844;4.412;2023-06-14T06:00:39;24.50;63.20
27797;DHT22;15177;50.844;4.412;2023-06-14T06:03:05;25.00;61.70
27797;DHT22;15177;50.844;4.412;2023-06-14T06:05:34;25.90;59.60
27797;DHT22;15177;50.844;4.412;2023-06-14T06:08:00;26.60;58.60
27797;DHT22;15177;50.844;4.412;2023-06-14T06:10:26;27.50;57.10
27797;DHT22;15177;50.844;4.412;2023-06-14T06:12:52;28.70;55.10
27797;DHT22;15177;50.844;4.412;2023-06-14T06:15:20;29.70;53.00
27797;DHT22;15177;50.844;4.412;2023-06-14T06:17:46;30.30;51.80
27797;DHT22;15177;50.844;4.412;2023-06-14T06:20:12;30.70;51.30
27797;DHT22;15177;50.844;4.412;2023-06-14T06:22:38;30.80;50.10
27797;DHT22;15177;50.844;4.412;2023-06-14T06:25:06;30.90;50.60
27797;DHT22;15177;50.844;4.412;2023-06-14T06:27:34;31.00;50.10
27797;DHT22;15177;50.844;4.412;2023-06-14T06:30:01;31.10;49.50
27797;DHT22;15177;50.844;4.412;2023-06-14T06:32:27;32.10;48.90
27797;DHT22;15177;50.844;4.412;2023-06-14T06:34:53;31.60;48.90
27797;DHT22;15177;50.844;4.412;2023-06-14T06:37:19;31.30;48.90
27797;DHT22;15177;50.844;4.412;2023-06-14T06:39:45;31.80;49.10
27797;DHT22;15177;50.844;4.412;2023-06-14T06:42:12;32.30;47.60
27797;DHT22;15177;50.844;4.412;2023-06-14T06:44:37;32.10;48.10
27797;DHT22;15177;50.844;4.412;2023-06-14T06:47:03;32.30;47.90
27797;DHT22;15177;50.844;4.412;2023-06-14T06:49:32;31.20;48.40
27797;DHT22;15177;50.844;4.412;2023-06-14T06:52:08;31.90;48.50
27797;DHT22;15177;50.844;4.412;2023-06-14T06:54:36;33.30;46.70
27797;DHT22;15177;50.844;4.412;2023-06-14T06:57:02;32.60;47.10
27797;DHT22;15177;50.844;4.412;2023-06-14T06:59:27;33.50;45.80
27797;DHT22;15177;50.844;4.412;2023-06-14T07:01:55;33.90;45.30
27797;DHT22;15177;50.844;4.412;2023-06-14T07:04:22;34.30;44.80
27797;DHT22;15177;50.844;4.412;2023-06-14T07:06:48;35.10;44.10
27797;DHT22;15177;50.844;4.412;2023-06-14T07:09:14;35.40;43.70
27797;DHT22;15177;50.844;4.412;2023-06-14T07:11:44;35.50;43.60
27797;DHT22;15177;50.844;4.412;2023-06-14T07:14:18;36.20;42.40
27797;DHT22;15177;50.844;4.412;2023-06-14T07:16:45;34.80;43.80
27797;DHT22;15177;50.844;4.412;2023-06-14T07:19:11;34.60;44.40
27797;DHT22;15177;50.844;4.412;2023-06-14T07:21:43;35.70;43.10
27797;DHT22;15177;50.844;4.412;2023-06-14T07:24:09;36.30;42.20
27797;DHT22;15177;50.844;4.412;2023-06-14T07:26:35;35.80;42.80
27797;DHT22;15177;50.844;4.412;2023-06-14T07:29:01;36.10;42.80
27797;DHT22;15177;50.844;4.412;2023-06-14T07:31:28;36.10;42.70
27797;DHT22;15177;50.844;4.412;2023-06-14T07:33:53;36.00;42.40
27797;DHT22;15177;50.844;4.412;2023-06-14T07:36:19;34.80;44.00
27797;DHT22;15177;50.844;4.412;2023-06-14T07:38:46;34.50;44.40
27797;DHT22;15177;50.844;4.412;2023-06-14T07:41:12;34.90;43.70
27797;DHT22;15177;50.844;4.412;2023-06-14T07:43:42;35.00;43.60
27797;DHT22;15177;50.844;4.412;2023-06-14T07:46:08;36.40;42.00
27797;DHT22;15177;50.844;4.412;2023-06-14T07:48:34;37.30;40.70
27797;DHT22;15177;50.844;4.412;2023-06-14T07:51:01;37.50;40.60
27797;DHT22;15177;50.844;4.412;2023-06-14T07:53:29;37.80;40.80
27797;DHT22;15177;50.844;4.412;2023-06-14T07:55:57;38.60;40.50
27797;DHT22;15177;50.844;4.412;2023-06-14T07:58:23;39.00;39.90
27797;DHT22;15177;50.844;4.412;2023-06-14T08:00:49;38.90;39.30
27797;DHT22;15177;50.844;4.412;2023-06-14T08:03:15;38.70;40.10
27797;DHT22;15177;50.844;4.412;2023-06-14T08:05:41;38.90;39.60
27797;DHT22;15177;50.844;4.412;2023-06-14T08:08:06;39.30;39.30
27797;DHT22;15177;50.844;4.412;2023-06-14T08:10:33;39.80;39.20
27797;DHT22;15177;50.844;4.412;2023-06-14T08:13:00;39.70;39.30
27797;DHT22;15177;50.844;4.412;2023-06-14T08:15:25;40.20;38.90
27797;DHT22;15177;50.844;4.412;2023-06-14T08:17:51;40.00;38.90
27797;DHT22;15177;50.844;4.412;2023-06-14T08:20:17;39.90;38.80
27797;DHT22;15177;50.844;4.412;2023-06-14T08:22:44;40.60;38.60
27797;DHT22;15177;50.844;4.412;2023-06-14T08:25:11;40.60;38.30
27797;DHT22;15177;50.844;4.412;2023-06-14T08:27:37;40.60;38.40
27797;DHT22;15177;50.844;4.412;2023-06-14T08:30:08;40.40;38.20
27797;DHT22;15177;50.844;4.412;2023-06-14T08:32:38;40.20;38.40
27797;DHT22;15177;50.844;4.412;2023-06-14T08:35:06;40.00;38.70
27797;DHT22;15177;50.844;4.412;2023-06-14T08:37:38;40.10;37.80
27797;DHT22;15177;50.844;4.412;2023-06-14T08:40:28;39.00;39.10
27797;DHT22;15177;50.844;4.412;2023-06-14T08:42:54;39.20;39.40
27797;DHT22;15177;50.844;4.412;2023-06-14T08:45:23;39.50;39.10
27797;DHT22;15177;50.844;4.412;2023-06-14T08:47:50;39.90;37.70
27797;DHT22;15177;50.844;4.412;2023-06-14T08:50:24;39.40;38.50
27797;DHT22;15177;50.844;4.412;2023-06-14T08:52:57;39.10;38.30
27797;DHT22;15177;50.844;4.412;2023-06-14T08:55:27;38.90;39.10
27797;DHT22;15177;50.844;4.412;2023-06-14T08:57:57;37.20;41.00
27797;DHT22;15177;50.844;4.412;2023-06-14T09:00:28;37.20;40.90
27797;DHT22;15177;50.844;4.412;2023-06-14T09:02:54;36.00;41.50
27797;DHT22;15177;50.844;4.412;2023-06-14T09:05:24;36.10;41.80
27797;DHT22;15177;50.844;4.412;2023-06-14T09:07:51;36.20;42.10
27797;DHT22;15177;50.844;4.412;2023-06-14T09:10:18;36.40;41.90
27797;DHT22;15177;50.844;4.412;2023-06-14T09:12:43;36.90;42.40
27797;DHT22;15177;50.844;4.412;2023-06-14T09:15:09;37.10;42.10
27797;DHT22;15177;50.844;4.412;2023-06-14T09:17:36;36.40;42.80
27797;DHT22;15177;50.844;4.412;2023-06-14T09:20:03;37.50;41.70
27797;DHT22;15177;50.844;4.412;2023-06-14T09:22:38;38.00;41.30
27797;DHT22;15177;50.844;4.412;2023-06-14T09:25:05;37.40;40.30
27797;DHT22;15177;50.844;4.412;2023-06-14T09:27:33;37.70;39.50
27797;DHT22;15177;50.844;4.412;2023-06-14T09:30:02;38.10;39.50
27797;DHT22;15177;50.844;4.412;2023-06-14T09:32:28;38.10;39.20
27797;DHT22;15177;50.844;4.412;2023-06-14T09:34:55;37.40;39.50
27797;DHT22;15177;50.844;4.412;2023-06-14T09:39:55;35.10;42.10
27797;DHT22;15177;50.844;4.412;2023-06-14T09:42:20;36.00;42.00
27797;DHT22;15177;50.844;4.412;2023-06-14T09:44:49;36.80;41.00
27797;DHT22;15177;50.844;4.412;2023-06-14T09:47:15;37.10;40.70
27797;DHT22;15177;50.844;4.412;2023-06-14T09:49:42;37.90;40.40
27797;DHT22;15177;50.844;4.412;2023-06-14T09:52:12;38.40;40.00
27797;DHT22;15177;50.844;4.412;2023-06-14T09:54:42;38.00;38.80
27797;DHT22;15177;50.844;4.412;2023-06-14T09:57:10;36.90;40.30
27797;DHT22;15177;50.844;4.412;2023-06-14T09:59:44;37.70;40.10
27797;DHT22;15177;50.844;4.412;2023-06-14T10:02:18;37.60;39.10
27797;DHT22;15177;50.844;4.412;2023-06-14T10:04:53;37.70;38.60
27797;DHT22;15177;50.844;4.412;2023-06-14T10:07:20;37.70;39.00
27797;DHT22;15177;50.844;4.412;2023-06-14T10:09:47;38.10;38.50
27797;DHT22;15177;50.844;4.412;2023-06-14T10:12:18;38.10;38.70
27797;DHT22;15177;50.844;4.412;2023-06-14T10:14:51;39.00;37.80
27797;DHT22;15177;50.844;4.412;2023-06-14T10:17:27;39.20;36.90
27797;DHT22;15177;50.844;4.412;2023-06-14T10:23:00;38.70;37.80
27797;DHT22;15177;50.844;4.412;2023-06-14T10:25:28;39.10;37.50
27797;DHT22;15177;50.844;4.412;2023-06-14T10:28:18;38.40;38.20
27797;DHT22;15177;50.844;4.412;2023-06-14T10:31:05;38.20;38.60
27797;DHT22;15177;50.844;4.412;2023-06-14T10:33:35;37.10;39.50
27797;DHT22;15177;50.844;4.412;2023-06-14T10:36:25;36.40;39.60
27797;DHT22;15177;50.844;4.412;2023-06-14T10:39:15;37.40;39.10
27797;DHT22;15177;50.844;4.412;2023-06-14T10:41:53;38.20;38.50
27797;DHT22;15177;50.844;4.412;2023-06-14T10:49:18;38.50;37.80
27797;DHT22;15177;50.844;4.412;2023-06-14T10:51:50;38.00;38.20
27797;DHT22;15177;50.844;4.412;2023-06-14T10:54:20;38.00;37.70
27797;DHT22;15177;50.844;4.412;2023-06-14T10:56:47;37.60;38.00
27797;DHT22;15177;50.844;4.412;2023-06-14T10:59:14;37.50;38.30
27797;DHT22;15177;50.844;4.412;2023-06-14T11:01:52;37.60;37.60
27797;DHT22;15177;50.844;4.412;2023-06-14T11:04:23;36.00;38.40
27797;DHT22;15177;50.844;4.412;2023-06-14T11:12:32;36.80;37.70
27797;DHT22;15177;50.844;4.412;2023-06-14T11:14:59;36.90;37.30
27797;DHT22;15177;50.844;4.412;2023-06-14T11:17:25;35.80;38.20
27797;DHT22;15177;50.844;4.412;2023-06-14T11:20:10;36.40;37.90
27797;DHT22;15177;50.844;4.412;2023-06-14T11:22:41;35.90;38.40
27797;DHT22;15177;50.844;4.412;2023-06-14T11:25:09;36.40;38.20
27797;DHT22;15177;50.844;4.412;2023-06-14T11:27:35;36.00;38.50
27797;DHT22;15177;50.844;4.412;2023-06-14T11:30:01;34.40;39.40
27797;DHT22;15177;50.844;4.412;2023-06-14T11:32:26;35.00;40.00
27797;DHT22;15177;50.844;4.412;2023-06-14T11:34:52;34.10;40.20
27797;DHT22;15177;50.844;4.412;2023-06-14T11:37:18;33.50;40.40
27797;DHT22;15177;50.844;4.412;2023-06-14T11:39:46;33.80;40.90
27797;DHT22;15177;50.844;4.412;2023-06-14T11:42:17;32.50;41.80
27797;DHT22;15177;50.844;4.412;2023-06-14T11:44:47;31.50;43.10
27797;DHT22;15177;50.844;4.412;2023-06-14T11:47:14;31.30;43.30
27797;DHT22;15177;50.844;4.412;2023-06-14T11:49:42;30.30;44.40
27797;DHT22;15177;50.844;4.412;2023-06-14T11:52:08;30.00;44.40
27797;DHT22;15177;50.844;4.412;2023-06-14T11:54:37;29.80;45.40
27797;DHT22;15177;50.844;4.412;2023-06-14T11:57:03;30.30;44.90
27797;DHT22;15177;50.844;4.412;2023-06-14T11:59:29;30.10;44.80
27797;DHT22;15177;50.844;4.412;2023-06-14T12:01:56;29.40;45.50
27797;DHT22;15177;50.844;4.412;2023-06-14T12:04:26;29.10;45.90
27797;DHT22;15177;50.844;4.412;2023-06-14T12:06:52;29.10;46.20
27797;DHT22;15177;50.844;4.412;2023-06-14T12:09:21;28.90;47.10
27797;DHT22;15177;50.844;4.412;2023-06-14T12:11:59;29.00;46.50
27797;DHT22;15177;50.844;4.412;2023-06-14T12:14:30;29.40;46.30
27797;DHT22;15177;50.844;4.412;2023-06-14T12:17:04;28.80;46.40
27797;DHT22;15177;50.844;4.412;2023-06-14T12:19:33;28.60;47.00
27797;DHT22;15177;50.844;4.412;2023-06-14T12:22:06;28.50;47.00
27797;DHT22;15177;50.844;4.412;2023-06-14T12:24:34;28.50;46.90
27797;DHT22;15177;50.844;4.412;2023-06-14T12:27:00;28.40;47.10
27797;DHT22;15177;50.844;4.412;2023-06-14T12:29:29;28.20;47.40
27797;DHT22;15177;50.844;4.412;2023-06-14T12:31:55;27.90;47.20
27797;DHT22;15177;50.844;4.412;2023-06-14T12:34:23;27.80;47.70
27797;DHT22;15177;50.844;4.412;2023-06-14T12:36:50;28.20;47.50
27797;DHT22;15177;50.844;4.412;2023-06-14T12:39:16;28.20;46.60
27797;DHT22;15177;50.844;4.412;2023-06-14T12:41:42;28.40;45.80
27797;DHT22;15177;50.844;4.412;2023-06-14T12:44:08;28.70;45.30
27797;DHT22;15177;50.844;4.412;2023-06-14T12:46:34;28.80;45.20
27797;DHT22;15177;50.844;4.412;2023-06-14T12:49:05;28.70;46.20
27797;DHT22;15177;50.844;4.412;2023-06-14T12:51:32;28.50;46.70
27797;DHT22;15177;50.844;4.412;2023-06-14T12:53:58;28.60;46.60
27797;DHT22;15177;50.844;4.412;2023-06-14T12:56:23;28.70;45.90
27797;DHT22;15177;50.844;4.412;2023-06-14T12:58:49;28.70;45.30
27797;DHT22;15177;50.844;4.412;2023-06-14T13:01:15;29.00;45.50
27797;DHT22;15177;50.844;4.412;2023-06-14T13:03:40;28.40;46.20
27797;DHT22;15177;50.844;4.412;2023-06-14T13:06:06;28.30;46.70
27797;DHT22;15177;50.844;4.412;2023-06-14T13:08:32;27.90;46.90
27797;DHT22;15177;50.844;4.412;2023-06-14T13:10:57;28.10;46.90
27797;DHT22;15177;50.844;4.412;2023-06-14T13:13:23;28.40;46.80
27797;DHT22;15177;50.844;4.412;2023-06-14T13:15:49;28.60;46.70
27797;DHT22;15177;50.844;4.412;2023-06-14T13:18:15;28.70;46.40
27797;DHT22;15177;50.844;4.412;2023-06-14T13:20:41;28.70;46.40
27797;DHT22;15177;50.844;4.412;2023-06-14T13:23:08;28.50;46.60
27797;DHT22;15177;50.844;4.412;2023-06-14T13:25:35;28.60;46.90
27797;DHT22;15177;50.844;4.412;2023-06-14T13:28:01;28.80;46.20
27797;DHT22;15177;50.844;4.412;2023-06-14T13:30:26;28.70;45.90
27797;DHT22;15177;50.844;4.412;2023-06-14T13:32:52;28.50;45.80
27797;DHT22;15177;50.844;4.412;2023-06-14T13:35:19;28.40;46.30
27797;DHT22;15177;50.844;4.412;2023-06-14T13:37:45;28.30;46.30
27797;DHT22;15177;50.844;4.412;2023-06-14T13:40:11;28.20;46.10
27797;DHT22;15177;50.844;4.412;2023-06-14T13:42:37;28.20;45.70
27797;DHT22;15177;50.844;4.412;2023-06-14T13:45:03;27.90;46.00
27797;DHT22;15177;50.844;4.412;2023-06-14T13:47:29;28.00;45.80
27797;DHT22;15177;50.844;4.412;2023-06-14T13:49:56;28.10;45.60
27797;DHT22;15177;50.844;4.412;2023-06-14T13:52:21;28.40;45.40
27797;DHT22;15177;50.844;4.412;2023-06-14T13:54:47;28.30;45.30
27797;DHT22;15177;50.844;4.412;2023-06-14T13:57:13;28.00;45.30
27797;DHT22;15177;50.844;4.412;2023-06-14T13:59:40;27.80;45.50
27797;DHT22;15177;50.844;4.412;2023-06-14T14:02:06;27.80;45.80
27797;DHT22;15177;50.844;4.412;2023-06-14T14:04:33;28.10;45.20
27797;DHT22;15177;50.844;4.412;2023-06-14T14:07:01;28.10;45.20
27797;DHT22;15177;50.844;4.412;2023-06-14T14:09:26;27.90;44.90
27797;DHT22;15177;50.844;4.412;2023-06-14T14:11:52;27.90;44.90
27797;DHT22;15177;50.844;4.412;2023-06-14T14:14:18;27.90;44.80
27797;DHT22;15177;50.844;4.412;2023-06-14T14:16:43;27.80;44.70
27797;DHT22;15177;50.844;4.412;2023-06-14T14:19:09;27.50;44.60
27797;DHT22;15177;50.844;4.412;2023-06-14T14:21:35;27.60;45.30
27797;DHT22;15177;50.844;4.412;2023-06-14T14:24:01;27.90;44.50
27797;DHT22;15177;50.844;4.412;2023-06-14T14:26:27;28.20;43.70
27797;DHT22;15177;50.844;4.412;2023-06-14T14:28:53;28.10;44.10
27797;DHT22;15177;50.844;4.412;2023-06-14T14:31:19;28.00;43.90
27797;DHT22;15177;50.844;4.412;2023-06-14T14:33:44;27.90;43.80
27797;DHT22;15177;50.844;4.412;2023-06-14T14:36:10;27.80;44.10
27797;DHT22;15177;50.844;4.412;2023-06-14T14:38:35;27.80;44.20
27797;DHT22;15177;50.844;4.412;2023-06-14T14:41:01;27.90;45.10
27797;DHT22;15177;50.844;4.412;2023-06-14T14:43:27;27.80;44.50
27797;DHT22;15177;50.844;4.412;2023-06-14T14:45:55;27.60;44.50
27797;DHT22;15177;50.844;4.412;2023-06-14T14:48:21;27.30;44.80
27797;DHT22;15177;50.844;4.412;2023-06-14T14:50:47;27.50;45.40
27797;DHT22;15177;50.844;4.412;2023-06-14T14:53:13;27.50;44.50
27797;DHT22;15177;50.844;4.412;2023-06-14T14:55:38;27.50;44.20
27797;DHT22;15177;50.844;4.412;2023-06-14T14:58:06;27.40;44.30
27797;DHT22;15177;50.844;4.412;2023-06-14T15:00:33;27.50;44.40
27797;DHT22;15177;50.844;4.412;2023-06-14T15:02:59;27.60;43.90
27797;DHT22;15177;50.844;4.412;2023-06-14T15:05:25;27.60;43.80
27797;DHT22;15177;50.844;4.412;2023-06-14T15:07:51;27.80;43.90
27797;DHT22;15177;50.844;4.412;2023-06-14T15:10:17;27.60;44.30
27797;DHT22;15177;50.844;4.412;2023-06-14T15:12:42;27.60;44.90
27797;DHT22;15177;50.844;4.412;2023-06-14T15:15:08;27.60;44.60
27797;DHT22;15177;50.844;4.412;2023-06-14T15:17:34;27.40;44.80
27797;DHT22;15177;50.844;4.412;2023-06-14T15:20:00;27.50;45.20
27797;DHT22;15177;50.844;4.412;2023-06-14T15:22:26;27.50;45.00
27797;DHT22;15177;50.844;4.412;2023-06-14T15:24:52;27.30;44.90
27797;DHT22;15177;50.844;4.412;2023-06-14T15:27:17;27.30;45.40
27797;DHT22;15177;50.844;4.412;2023-06-14T15:29:44;27.40;45.70
27797;DHT22;15177;50.844;4.412;2023-06-14T15:32:10;27.50;45.00
27797;DHT22;15177;50.844;4.412;2023-06-14T15:34:36;27.50;45.40
27797;DHT22;15177;50.844;4.412;2023-06-14T15:37:05;27.30;45.90
27797;DHT22;15177;50.844;4.412;2023-06-14T15:39:31;27.40;46.20
27797;DHT22;15177;50.844;4.412;2023-06-14T15:41:57;27.50;45.20
27797;DHT22;15177;50.844;4.412;2023-06-14T15:44:23;27.30;45.50
27797;DHT22;15177;50.844;4.412;2023-06-14T15:46:49;27.10;45.50
27797;DHT22;15177;50.844;4.412;2023-06-14T15:49:15;26.90;45.40
27797;DHT22;15177;50.844;4.412;2023-06-14T15:51:40;26.80;45.90